Runway excursion Incident Boeing 737-401 YV3158, 03 Mar 2018
ASN logo
ASN Wikibase Occurrence # 207013
 
This information is added by users of ASN. Neither ASN nor the Flight Safety Foundation are responsible for the completeness or correctness of this information. If you feel this information is incomplete or incorrect, you can submit corrected information.

Date:03-MAR-2018
Time:c. 21:50 LT
Type:Silhouette image of generic B734 model; specific model in this crash may look slightly different    
Boeing 737-401
Owner/operator:Avior Airlines
Registration: YV3158
MSN: 23984/1674
Fatalities:Fatalities: 0 / Occupants:
Other fatalities:0
Aircraft damage: None
Location:Guayaquil-José Joaquín de Olmedo International Airport (GYE/SEGY) -   Ecuador
Phase: Landing
Nature:Passenger - Scheduled
Departure airport:Barcelona-Gen J A Anzoategui Airport (BLA/SVBC)
Destination airport:Guayaquil-José Joaquín de Olmedo International Airport (GYE/SEGY)
Confidence Rating: Information is only available from news, social media or unofficial sources
Narrative:
Avior flight 9V1260, a Boeing 737-400, suffered a runway excursion after landing at Guayaquil Airport, Ecuador.
It was raining as the aircraft touched down on runway 21. It apparently failed to stop on the runway and overran into the grass at the end of the runway.
Landing Distance Available (LDA) for runway 21 is 2547 m.


Weather about the time of the incident (21:50, 3 March LT / 02:50 4 March UTC):
SEGU 040302Z 02007KT 6000 -RA FEW010 BKN016 OVC090 24/23 Q1011 NOSIG RMK A2986
SEGU 040300Z 02007KT 6000 -RA FEW010 BKN016 OVC090 24/23 Q1011 NOSIG RMK A2986
SEGU 040200Z 03006KT 6000 -RA FEW010 BKN016 OVC090 24/23 Q1010 NOSIG RMK A2984

Sources:

https://www.eluniverso.com/guayaquil/2018/03/03/nota/6649324/avion-se-salio-pista-aeropuerto-guayaquil

Media:


Revision history:

Date/timeContributorUpdates
04-Mar-2018 07:49 harro Added
04-Mar-2018 07:52 harro Updated [Embed code, Narrative]
04-Mar-2018 08:05 harro Updated [Narrative]

Corrections or additions? ... Edit this accident description

The Aviation Safety Network is an exclusive service provided by:
Quick Links:

CONNECT WITH US: FSF Facebook FSF Twitter FSF Youtube FSF LinkedIn FSF Instagram

©2023 Flight Safety Foundation

701 N. Fairfax St., Ste. 250
Alexandria, Virginia 22314
www.FlightSafety.org